Aérodrome :







RETROUVEZ-NOUS SUR...

 
LOGIN :

S'inscrire | Disclaimer

   EN    FR    IT 

 









Légende :    VFR   VFR Marginal   IFR   IFR Intensif   IFR Très Intensif
Visi : 
Plafond : 
>= 8 km
>= 3000ft
5 à 8 km
1000 à 3000 ft
1500m à 5 km
500 à 1000 ft
800 à 1500m
200 à 500 ft
< 800m
< 200 ft
Symboles :   Orages  Brouillard  Fortes neiges  Fortes précipitations  Vent > 20 kt






- Altitude de l'aérodrome : 56 ft


KRKD - Knox County Regional

DERNIER METAR :
  • 102256Z AUTO 22013G24KT 9SM -RA OVC070 11/09 A2969 RMK AO2 SLP055 P0002 T01060094

METARs EXPIRÉS :
  • 102156Z AUTO 23011KT 10SM -RA BKN065 OVC110 11/10 A2966 RMK AO2 SLP043 P0001 T01110100
  • 102056Z AUTO 21010KT 7SM -RA FEW006 OVC060 11/10 A2966 RMK AO2 RAB53 SLP043 P0000 60000 T01110100 52004

TAF KRKD
Valide du 10 à 20h jusqu'au 11 à 18h UTC


102011Z 1020/1118 22010KT P6SM VCSH OVC008
TEMPO 1020/1022 4SM -SHRA BKN020 OVC040
FM102200 24009KT P6SM BKN020 OVC050
FM110100 30006KT P6SM BKN050 OVC080
PROB30 1107/1110 2SM -SN BKN030 OVC050 AMD LTD TO VIS AND WIND



MET'MAP, la Météo Aéronautique d'un coup d'oeil ! - Copyright ORBIFLY Décembre 2007 - Disclaimer

ORBIFLY MET'MAP TEAM :

Programmation & Développement : Alexandra Zaïnal
Sur une idée originale de : Baudouin d'Aumeries
Assistance à la programmation : Marc-Olivier Méhu
Soutien technique & logistique : Manuel Goepfert

Contact : metmap@orbifly.com




SOURCES & CREDITS :

   NOAA